createdAt,value
2022-08-11T05:38:55.147Z,16.37
2022-08-11T05:41:43.472Z,16.77
2022-08-11T05:44:36.580Z,15.57
2022-08-11T05:47:23.882Z,15.30
2022-08-11T05:50:13.650Z,13.00
2022-08-11T05:53:09.100Z,9.80
2022-08-11T05:56:03.082Z,9.43
2022-08-11T05:58:41.966Z,10.63
2022-08-11T06:01:13.351Z,10.93
2022-08-11T06:04:02.926Z,8.47
2022-08-11T06:06:32.635Z,7.57
2022-08-11T06:09:02.442Z,7.07
2022-08-11T06:11:52.182Z,6.63
2022-08-11T06:14:24.357Z,6.80
2022-08-11T06:16:59.126Z,7.90
2022-08-11T06:19:39.994Z,7.97
2022-08-11T06:22:12.992Z,8.00
2022-08-11T06:24:45.853Z,10.23
2022-08-11T06:27:22.724Z,7.73
2022-08-11T06:29:55.504Z,7.20
2022-08-11T06:32:30.475Z,9.13
2022-08-11T06:35:20.327Z,7.70
2022-08-11T06:38:03.911Z,8.47
2022-08-11T06:40:39.992Z,6.27
2022-08-11T06:43:19.109Z,7.40
2022-08-11T06:45:57.039Z,7.07
2022-08-11T06:48:27.174Z,9.70
2022-08-11T06:51:14.895Z,7.40
2022-08-11T06:53:57.557Z,7.40
2022-08-11T06:57:25.924Z,6.67
2022-08-11T07:00:21.452Z,5.80
2022-08-11T07:02:55.033Z,5.27
2022-08-11T07:05:29.438Z,6.03
2022-08-11T07:08:52.074Z,6.80
2022-08-11T07:12:19.507Z,7.43
2022-08-11T07:15:10.753Z,8.40
2022-08-11T07:17:50.029Z,8.27
2022-08-11T07:20:37.546Z,7.00
2022-08-11T07:23:27.821Z,6.70
2022-08-11T07:26:19.260Z,6.17
2022-08-11T07:28:59.373Z,5.27
2022-08-11T07:31:37.416Z,6.00
2022-08-11T07:34:18.593Z,6.17
2022-08-11T07:36:52.514Z,7.13
2022-08-11T07:39:24.090Z,6.63
2022-08-11T07:41:55.338Z,6.97
2022-08-11T07:44:30.778Z,21.67
2022-08-11T07:47:20.650Z,32.20
2022-08-11T07:50:11.461Z,24.70
2022-08-11T07:52:41.281Z,11.37
2022-08-11T07:55:15.463Z,8.33
2022-08-11T07:58:16.250Z,11.53
2022-08-11T08:01:21.700Z,16.93
2022-08-11T08:04:09.646Z,16.43
2022-08-11T08:06:58.956Z,11.97
2022-08-11T08:09:45.698Z,11.13
2022-08-11T08:12:39.537Z,11.87
2022-08-11T08:15:28.512Z,10.57
2022-08-11T08:18:25.493Z,8.90
2022-08-11T08:21:12.488Z,8.63
2022-08-11T08:23:46.796Z,9.53
2022-08-11T08:26:34.753Z,9.27
2022-08-11T08:29:19.475Z,9.30
2022-08-11T08:31:50.725Z,8.60
2022-08-11T08:34:21.136Z,7.90
2022-08-11T08:36:52.118Z,6.87
2022-08-11T08:39:23.809Z,6.67
2022-08-11T08:41:57.231Z,6.97
2022-08-11T08:44:38.376Z,8.40
2022-08-11T08:47:12.279Z,8.00
2022-08-11T08:50:03.325Z,7.63
2022-08-11T08:52:43.707Z,8.07
2022-08-11T08:55:21.602Z,8.37
2022-08-11T08:57:52.863Z,9.30
2022-08-11T09:00:26.027Z,7.90
2022-08-11T09:02:55.519Z,7.87
2022-08-11T09:05:26.033Z,8.23
2022-08-11T09:08:32.490Z,6.00
2022-08-11T09:11:42.473Z,6.10
2022-08-11T09:14:50.243Z,7.03
2022-08-11T09:17:20.665Z,7.80
2022-08-11T09:19:52.195Z,8.03
2022-08-11T09:22:44.408Z,6.97
2022-08-11T09:25:31.938Z,5.80
2022-08-11T09:28:03.292Z,5.80
2022-08-11T09:30:33.549Z,6.43
2022-08-11T09:33:05.887Z,8.40
2022-08-11T09:35:38.941Z,8.47
2022-08-11T09:38:26.420Z,7.20
2022-08-11T09:40:57.101Z,6.50
2022-08-11T09:43:47.207Z,7.53
2022-08-11T09:46:16.946Z,6.10
2022-08-11T09:48:48.097Z,6.20
2022-08-11T09:51:18.838Z,6.83
2022-08-11T09:54:02.829Z,6.53
2022-08-11T09:57:11.589Z,6.73
2022-08-11T09:59:42.493Z,7.50
2022-08-11T10:02:12.695Z,7.70
2022-08-11T10:04:45.552Z,8.23
2022-08-11T10:07:16.494Z,5.60
2022-08-11T10:09:49.210Z,5.73
2022-08-11T10:12:28.087Z,7.20
2022-08-11T10:15:26.066Z,6.27
2022-08-11T10:18:16.247Z,5.67
2022-08-11T10:20:50.425Z,5.00
2022-08-11T10:24:01.464Z,5.83
2022-08-11T10:26:47.426Z,5.97
2022-08-11T10:29:37.578Z,5.20
2022-08-11T10:32:33.349Z,5.70
2022-08-11T10:35:14.637Z,5.00
2022-08-11T10:38:08.818Z,6.63
2022-08-11T10:41:10.408Z,7.00
2022-08-11T10:44:01.129Z,6.33
2022-08-11T10:47:08.576Z,5.93
2022-08-11T10:49:39.992Z,8.00
2022-08-11T10:52:26.535Z,7.60
2022-08-11T10:55:13.801Z,5.13
2022-08-11T10:58:04.546Z,6.00
2022-08-11T11:00:35.265Z,7.10
2022-08-11T11:03:22.710Z,6.63
2022-08-11T11:06:27.887Z,7.33
2022-08-11T11:08:57.773Z,6.27
2022-08-11T11:11:45.901Z,5.07
2022-08-11T11:14:36.738Z,6.53
2022-08-11T11:17:33.907Z,5.10
2022-08-11T11:20:06.283Z,6.23
2022-08-11T11:22:39.652Z,6.20
2022-08-11T11:25:32.241Z,6.27
2022-08-11T11:28:25.052Z,6.47
2022-08-11T11:31:06.209Z,7.27
2022-08-11T11:34:12.047Z,8.60
2022-08-11T11:36:48.002Z,8.27
2022-08-11T11:39:22.845Z,6.73
2022-08-11T11:41:55.684Z,5.70
2022-08-11T11:44:25.498Z,6.13
2022-08-11T11:46:56.747Z,5.10
2022-08-11T11:49:28.676Z,5.83
2022-08-11T11:51:59.286Z,6.07
2022-08-11T11:54:34.057Z,5.47
2022-08-11T11:57:40.363Z,6.10
2022-08-11T12:00:33.810Z,7.73
2022-08-11T12:03:05.490Z,7.97
2022-08-11T12:05:37.690Z,9.57
2022-08-11T12:08:16.457Z,9.87
2022-08-11T12:10:49.268Z,7.10
2022-08-11T12:13:37.362Z,5.70
2022-08-11T12:16:32.773Z,7.53
2022-08-11T12:18:59.548Z,6.70
2022-08-11T12:21:34.029Z,7.37
2022-08-11T12:24:22.236Z,8.03
2022-08-11T12:27:17.104Z,7.93
2022-08-11T12:30:08.723Z,9.80
2022-08-11T12:32:40.387Z,6.03
2022-08-11T12:35:11.667Z,7.70
2022-08-11T12:37:43.851Z,6.43
2022-08-11T12:41:13.667Z,6.00
2022-08-11T12:43:57.652Z,6.50
2022-08-11T12:46:32.134Z,6.17
2022-08-11T12:49:25.104Z,5.70
2022-08-11T12:52:14.626Z,5.73
2022-08-11T12:54:52.528Z,6.63
2022-08-11T12:57:52.534Z,5.70
2022-08-11T13:00:41.829Z,6.87
2022-08-11T13:03:30.427Z,6.67
2022-08-11T13:06:02.877Z,5.57
2022-08-11T13:08:35.796Z,5.93
2022-08-11T13:11:23.582Z,5.50
2022-08-11T13:14:14.979Z,8.47
2022-08-11T13:17:04.578Z,8.03
2022-08-11T13:19:34.756Z,6.30
2022-08-11T13:22:07.595Z,7.40
2022-08-11T13:24:38.678Z,7.80
2022-08-11T13:27:08.069Z,6.23
2022-08-11T13:29:38.134Z,6.20
2022-08-11T13:32:09.040Z,6.70
2022-08-11T13:34:42.026Z,8.63
2022-08-11T13:37:14.569Z,7.10
2022-08-11T13:39:47.916Z,6.83
2022-08-11T13:42:20.410Z,6.60
2022-08-11T13:44:49.931Z,6.47
2022-08-11T13:47:24.014Z,6.83
2022-08-11T13:50:14.009Z,7.00
2022-08-11T13:52:44.036Z,7.20
2022-08-11T13:55:51.047Z,6.70
2022-08-11T13:58:40.048Z,7.97
2022-08-11T14:01:35.261Z,7.77
2022-08-11T14:04:29.663Z,5.83
2022-08-11T14:07:00.459Z,7.93
2022-08-11T14:09:33.888Z,8.63
2022-08-11T14:12:28.056Z,7.30
2022-08-11T14:15:08.075Z,7.27
2022-08-11T14:17:48.103Z,7.13
2022-08-11T14:20:39.374Z,6.17
2022-08-11T14:23:11.256Z,6.63
2022-08-11T14:26:04.482Z,14.13
2022-08-11T14:28:40.261Z,8.30
2022-08-11T14:31:15.987Z,6.13
2022-08-11T14:33:58.759Z,6.23
2022-08-11T14:36:35.371Z,6.67
2022-08-11T14:39:08.413Z,8.13
2022-08-11T14:42:11.941Z,7.93
2022-08-11T14:45:03.985Z,6.50
2022-08-11T14:47:36.001Z,5.87
2022-08-11T14:50:11.746Z,8.60
2022-08-11T14:52:50.859Z,7.20
2022-08-11T14:55:39.141Z,6.37
2022-08-11T14:58:11.019Z,8.27
2022-08-11T15:00:40.918Z,11.03
2022-08-11T15:03:11.411Z,10.70
2022-08-11T15:05:45.132Z,7.63
2022-08-11T15:08:47.761Z,8.93
2022-08-11T15:11:37.094Z,8.50
2022-08-11T15:14:08.990Z,7.50
2022-08-11T15:16:58.068Z,7.43
2022-08-11T15:19:40.632Z,7.73
2022-08-11T15:22:29.081Z,9.30
2022-08-11T15:25:01.754Z,7.67
2022-08-11T15:27:52.091Z,8.17
2022-08-11T15:30:40.110Z,7.70
2022-08-11T15:33:28.531Z,10.47
2022-08-11T15:36:16.134Z,8.93
2022-08-11T15:38:55.362Z,8.23
2022-08-11T15:42:02.339Z,7.40
2022-08-11T15:45:02.781Z,8.80
2022-08-11T15:47:43.931Z,11.30
2022-08-11T15:50:19.478Z,11.97
2022-08-11T15:52:54.839Z,8.67
2022-08-11T15:55:26.015Z,7.83
2022-08-11T15:58:16.350Z,7.67
2022-08-11T16:01:08.986Z,10.27
2022-08-11T16:04:09.062Z,11.23
2022-08-11T16:06:44.094Z,9.30
2022-08-11T16:09:25.321Z,8.83
2022-08-11T16:12:01.117Z,10.03
2022-08-11T16:14:53.356Z,10.53
2022-08-11T16:17:25.362Z,8.83
2022-08-11T16:19:56.841Z,9.23
2022-08-11T16:22:35.467Z,10.07
2022-08-11T16:27:02.995Z,10.03
2022-08-11T16:28:02.963Z,8.80
2022-08-11T16:30:35.242Z,9.87
2022-08-11T16:33:48.646Z,9.70
2022-08-11T16:36:33.152Z,9.20
2022-08-11T16:39:04.233Z,8.60
2022-08-11T16:41:53.420Z,9.53
2022-08-11T16:44:42.159Z,9.57
2022-08-11T16:47:17.282Z,9.13
2022-08-11T16:49:52.259Z,8.95
2022-08-11T16:52:22.485Z,7.27
2022-08-11T16:54:52.856Z,11.23
2022-08-11T16:57:43.299Z,8.27
2022-08-11T17:00:15.208Z,8.30
2022-08-11T17:03:04.786Z,7.80
2022-08-11T17:14:17.893Z,9.30
2022-08-11T17:17:07.592Z,8.47
2022-08-11T17:20:39.430Z,7.90
2022-08-11T17:22:49.766Z,7.77
2022-08-11T17:25:20.097Z,8.00
2022-08-11T17:27:57.415Z,7.47
2022-08-11T17:30:48.016Z,7.73
2022-08-11T17:33:34.967Z,9.07
2022-08-11T17:36:07.115Z,18.97
2022-08-11T17:38:38.104Z,25.40
2022-08-11T17:41:25.220Z,22.33
2022-08-11T17:44:14.085Z,21.40
2022-08-11T17:47:05.978Z,20.30
2022-08-11T17:49:39.620Z,14.63
2022-08-11T17:52:34.690Z,9.47
2022-08-11T17:55:50.941Z,8.73
2022-08-11T17:58:32.159Z,8.60
2022-08-11T18:01:09.346Z,9.20
2022-08-11T18:03:42.136Z,8.47
2022-08-11T18:06:34.116Z,9.53
2022-08-11T18:09:27.295Z,8.27
